Time;durP1;ratioP1;P1;durP2;ratioP2;P2;SDS_P1;SDS_P2;PMS_P1;PMS_P2;Temp;Humidity;BMP_temperature;BMP_pressure;BME280_temperature;BME280_humidity;BME280_pressure;Samples;Min_cycle;Max_cycle;Signal;HPM_P1;HPM_P2
2023/07/03 00:02:14;;;;;;;0.30;0.30;;;;;;;16.01;nan;100366.56;4972069;28;20731;-90
2023/07/03 00:05:09;;;;;;;0.60;0.50;;;;;;;16.01;nan;100366.56;4971989;28;20206;-90
2023/07/03 00:07:46;;;;;;;8.50;1.03;;;;;;;16.05;nan;100364.69;4980852;28;20301;-90
2023/07/03 00:10:22;;;;;;;1.27;1.17;;;;;;;16.03;nan;100361.50;4979680;28;20190;-90
2023/07/03 00:12:59;;;;;;;0.33;0.33;;;;;;;16.02;nan;100359.88;4972119;28;20248;-91
2023/07/03 00:15:42;;;;;;;1.83;1.80;;;;;;;16.00;nan;100355.88;4972690;28;20206;-90
2023/07/03 00:18:13;;;;;;;0.50;0.50;;;;;;;15.94;nan;100352.59;4971714;28;20189;-90
2023/07/03 00:20:45;;;;;;;4.63;1.33;;;;;;;15.84;nan;100344.81;4971848;28;20193;-90
2023/07/03 00:23:34;;;;;;;0.93;0.77;;;;;;;15.78;nan;100340.69;4971861;28;20256;-90
2023/07/03 00:26:12;;;;;;;0.73;0.73;;;;;;;15.70;nan;100333.38;4972367;28;20217;-91
2023/07/03 00:28:53;;;;;;;;;;;;;;;;;;;;;
2023/07/03 00:31:39;;;;;;;1.90;0.93;;;;;;;15.53;nan;100323.41;4973146;28;20703;-91
2023/07/03 00:34:05;;;;;;;7.00;1.00;;;;;;;15.42;nan;100325.81;4971792;28;20272;-90
2023/07/03 00:36:30;;;;;;;8.47;1.20;;;;;;;15.40;nan;100327.31;4970464;28;20198;-90
2023/07/03 00:39:04;;;;;;;0.53;0.53;;;;;;;15.42;nan;100328.56;4968286;28;20186;-90
2023/07/03 00:42:04;;;;;;;7.77;1.73;;;;;;;15.48;nan;100329.94;4971601;28;20185;-90
2023/07/03 00:44:45;;;;;;;;;;;;;;;;;;;;;
2023/07/03 00:47:30;;;;;;;1.40;1.30;;;;;;;15.59;nan;100334.97;4970492;28;20686;-90
2023/07/03 00:50:01;;;;;;;8.43;1.10;;;;;;;15.65;nan;100326.16;4967054;28;20194;-91
2023/07/03 00:52:37;;;;;;;2.60;1.30;;;;;;;15.68;nan;100335.66;4978805;28;20284;-89
2023/07/03 00:55:08;;;;;;;5.40;1.33;;;;;;;15.73;nan;100335.41;4979367;28;20325;-90
2023/07/03 00:57:48;;;;;;;0.40;0.40;;;;;;;15.74;nan;100329.56;4971760;28;20220;-90
2023/07/03 01:00:36;;;;;;;0.60;0.60;;;;;;;15.74;nan;100328.75;4974650;28;20264;-90
2023/07/03 01:03:49;;;;;;;2.93;1.97;;;;;;;15.71;nan;100326.69;4975191;28;20233;-90
2023/07/03 01:06:41;;;;;;;;;;;;;;;;;;;;;
2023/07/03 01:09:20;;;;;;;4.70;1.57;;;;;;;15.69;nan;100331.75;4975960;28;20213;-90
2023/07/03 01:11:57;;;;;;;5.17;1.90;;;;;;;15.68;nan;100335.66;4974387;28;20189;-89
2023/07/03 01:14:46;;;;;;;1.03;1.03;;;;;;;15.82;nan;100338.84;4974254;28;20213;-90
2023/07/03 01:17:33;;;;;;;0.27;0.27;;;;;;;15.87;nan;100327.56;4974820;28;20186;-91
2023/07/03 01:20:04;;;;;;;5.03;1.43;;;;;;;15.89;nan;100328.00;4974440;28;20192;-89
2023/07/03 01:22:44;;;;;;;2.87;1.50;;;;;;;15.90;nan;100335.13;4963236;28;20193;-90
2023/07/03 01:25:19;;;;;;;2.50;1.90;;;;;;;15.87;nan;100335.84;4971676;28;20873;-90
2023/07/03 01:27:54;;;;;;;5.27;1.27;;;;;;;15.87;nan;100332.28;4973646;28;20220;-90
2023/07/03 01:30:23;;;;;;;7.37;2.40;;;;;;;15.86;nan;100323.22;4973584;28;20193;-90
2023/07/03 01:32:59;;;;;;;4.93;1.50;;;;;;;15.85;nan;100327.13;4973992;28;20667;-90
2023/07/03 01:35:28;;;;;;;2.77;1.47;;;;;;;15.84;nan;100320.00;4982101;28;20209;-90
2023/07/03 01:38:00;;;;;;;5.40;2.07;;;;;;;15.88;nan;100325.63;4974052;28;20177;-90
2023/07/03 01:41:01;;;;;;;1.03;0.53;;;;;;;15.94;nan;100315.97;4973782;28;20185;-90
2023/07/03 01:43:40;;;;;;;1.93;1.10;;;;;;;15.91;nan;100319.41;4973356;28;20209;-90
2023/07/03 01:46:13;;;;;;;16.30;2.03;;;;;;;15.91;nan;100308.38;4973911;28;20216;-89
2023/07/03 01:48:38;;;;;;;0.77;0.77;;;;;;;15.91;nan;100306.44;4973874;28;20209;-90
2023/07/03 01:51:16;;;;;;;2.00;1.77;;;;;;;15.89;nan;100314.25;4973289;28;20185;-90
2023/07/03 01:54:01;;;;;;;5.63;2.73;;;;;;;15.77;nan;100292.28;4973418;28;20205;-91
2023/07/03 01:56:51;;;;;;;;;;;;;;;;;;;;;
2023/07/03 01:59:25;;;;;;;1.20;1.10;;;;;;;15.80;nan;100310.84;4974690;28;20188;-90
2023/07/03 02:02:05;;;;;;;1.80;1.70;;;;;;;15.86;nan;100254.34;4973467;28;20224;-89
2023/07/03 02:04:57;;;;;;;2.00;1.60;;;;;;;15.89;nan;100286.69;4958115;28;20680;-90
2023/07/03 02:07:38;;;;;;;5.20;2.33;;;;;;;15.92;nan;100296.22;4973485;28;20213;-90
2023/07/03 02:13:06;;;;;;;6.33;1.93;;;;;;;15.87;nan;100297.25;4975291;28;20213;-88
2023/07/03 02:15:39;;;;;;;1.90;1.57;;;;;;;15.88;nan;100284.28;4981265;28;20204;-90
2023/07/03 02:18:07;;;;;;;1.47;1.37;;;;;;;15.90;nan;100302.06;4973557;28;20185;-91
2023/07/03 02:20:39;;;;;;;1.20;1.20;;;;;;;15.91;nan;100291.84;4972648;28;20190;-90
2023/07/03 02:23:14;;;;;;;5.67;2.80;;;;;;;15.85;nan;100293.25;4980662;28;20185;-90
2023/07/03 02:25:40;;;;;;;2.57;1.57;;;;;;;15.85;nan;100294.06;4973366;28;20180;-90
2023/07/03 02:28:15;;;;;;;3.23;1.90;;;;;;;15.82;nan;100297.53;4972822;28;20198;-90
2023/07/03 02:30:44;;;;;;;3.77;1.43;;;;;;;15.79;nan;100278.13;4972491;28;20254;-89
2023/07/03 02:33:16;;;;;;;1.80;1.70;;;;;;;15.70;nan;100281.03;4972703;28;20209;-90
2023/07/03 02:35:48;;;;;;;12.10;2.20;;;;;;;15.66;nan;100286.44;4973123;28;20209;-90
2023/07/03 02:38:22;;;;;;;1.87;1.50;;;;;;;15.67;nan;100287.25;4973009;28;20184;-89
2023/07/03 02:41:09;;;;;;;3.07;2.17;;;;;;;15.65;nan;100273.03;4973410;28;20190;-89
2023/07/03 02:43:42;;;;;;;2.17;1.23;;;;;;;15.65;nan;100282.09;4930758;29;20246;-90
2023/07/03 02:46:15;;;;;;;5.23;1.67;;;;;;;15.61;nan;100283.13;4949493;28;20280;-90
2023/07/03 02:48:48;;;;;;;3.20;2.80;;;;;;;15.59;nan;100272.44;4975760;28;20215;-89
2023/07/03 02:51:20;;;;;;;8.13;2.87;;;;;;;15.56;nan;100277.84;4991056;28;20514;-90
2023/07/03 02:54:02;;;;;;;6.77;2.23;;;;;;;15.53;nan;100275.78;4974824;28;20206;-90
2023/07/03 02:56:30;;;;;;;2.80;1.33;;;;;;;15.40;nan;100237.25;4972148;28;20205;-90
2023/07/03 02:58:56;;;;;;;3.57;2.70;;;;;;;15.36;nan;100263.09;4972800;28;20177;-90
2023/07/03 03:01:25;;;;;;;2.80;2.53;;;;;;;15.36;nan;100263.09;4972462;28;20200;-90
2023/07/03 03:04:33;;;;;;;2.23;2.03;;;;;;;15.30;nan;100254.25;4972672;28;20763;-89
2023/07/03 03:11:00;;;;;;;1.53;0.87;;;;;;;15.30;nan;100254.25;4964572;28;20229;-90
2023/07/03 03:13:55;;;;;;;5.90;2.47;;;;;;;15.29;nan;100262.88;4948484;28;20252;-91
2023/07/03 03:16:26;;;;;;;4.47;1.60;;;;;;;15.25;nan;100259.22;4972424;28;20213;-89
2023/07/03 03:19:14;;;;;;;;;;;;;;;;;;;;;
2023/07/03 03:21:43;;;;;;;6.30;3.10;;;;;;;15.18;nan;100259.78;4973124;28;20196;-90
2023/07/03 03:24:39;;;;;;;2.77;1.97;;;;;;;15.20;nan;100256.72;4972505;28;20221;-90
2023/07/03 03:27:36;;;;;;;0.83;0.67;;;;;;;15.18;nan;100259.78;4971186;28;20193;-90
2023/07/03 03:30:08;;;;;;;9.13;2.07;;;;;;;15.19;nan;100272.44;4970573;28;20201;-90
2023/07/03 03:32:43;;;;;;;4.50;2.50;;;;;;;15.25;nan;100259.22;4964364;28;20263;-90
2023/07/03 03:35:12;;;;;;;1.77;1.47;;;;;;;15.23;nan;100267.81;4971508;28;20220;-90
2023/07/03 03:37:48;;;;;;;7.47;2.10;;;;;;;15.19;nan;100244.91;4972323;28;20378;-90
2023/07/03 03:40:14;;;;;;;4.97;2.87;;;;;;;15.19;nan;100253.16;4971456;28;20181;-90
2023/07/03 03:42:55;;;;;;;5.83;2.17;;;;;;;15.21;nan;100250.06;4971678;28;20196;-90
2023/07/03 03:45:24;;;;;;;4.23;2.43;;;;;;;15.15;nan;100257.72;4971973;28;20287;-91
2023/07/03 03:48:01;;;;;;;0.57;0.57;;;;;;;15.11;nan;100254.88;4971671;28;20224;-90
2023/07/03 03:50:37;;;;;;;9.43;2.20;;;;;;;15.15;nan;100257.72;4971885;28;20207;-89
2023/07/03 03:53:07;;;;;;;2.77;1.27;;;;;;;15.17;nan;100252.69;4971910;28;20652;-89
2023/07/03 03:55:38;;;;;;;2.37;2.00;;;;;;;15.11;nan;100248.56;4964329;28;20664;-90
2023/07/03 03:58:04;;;;;;;2.30;1.87;;;;;;;15.15;nan;100261.28;4971691;28;20292;-89
2023/07/03 04:00:32;;;;;;;6.23;1.50;;;;;;;15.13;nan;100260.84;4967190;28;20681;-90
2023/07/03 04:03:03;;;;;;;2.03;1.83;;;;;;;15.11;nan;100257.63;4967633;28;20174;-90
2023/07/03 04:05:59;;;;;;;3.67;2.07;;;;;;;15.03;nan;100250.28;4964156;28;20189;-89
2023/07/03 04:08:33;;;;;;;14.60;3.17;;;;;;;14.97;nan;100254.44;4988041;28;20205;-89
2023/07/03 04:11:17;;;;;;;2.00;1.90;;;;;;;14.99;nan;100246.63;4968652;28;20190;-90
2023/07/03 04:13:43;;;;;;;1.90;1.30;;;;;;;15.01;nan;100257.28;4981949;28;20213;-90
2023/07/03 04:16:24;;;;;;;5.80;2.47;;;;;;;15.02;nan;100261.66;4971622;28;20181;-89
2023/07/03 04:18:58;;;;;;;4.10;2.53;;;;;;;15.06;nan;100273.59;4971719;28;20177;-91
2023/07/03 04:21:40;;;;;;;7.07;2.23;;;;;;;15.06;nan;100265.34;4979027;28;20189;-91
2023/07/03 04:24:07;;;;;;;1.30;1.20;;;;;;;15.10;nan;100269.78;4988328;23;20739;-87
2023/07/03 04:26:35;;;;;;;4.97;2.97;;;;;;;15.11;nan;100281.59;4953741;28;20653;-86
2023/07/03 04:29:01;;;;;;;5.93;2.47;;;;;;;15.11;nan;100270.59;4953488;28;20290;-86
2023/07/03 04:31:26;;;;;;;3.70;2.07;;;;;;;15.14;nan;100278.94;4952050;28;20198;-85
2023/07/03 04:33:51;;;;;;;10.13;2.33;;;;;;;15.04;nan;100259.34;4958369;28;20233;-87
2023/07/03 04:36:23;;;;;;;4.10;2.37;;;;;;;15.05;nan;100264.53;4975079;28;20185;-86
2023/07/03 04:39:01;;;;;;;14.27;2.57;;;;;;;15.00;nan;100255.69;4976432;28;20189;-86
2023/07/03 04:41:35;;;;;;;3.20;1.10;;;;;;;14.98;nan;100260.75;4976370;28;20197;-86
2023/07/03 04:44:15;;;;;;;0.50;0.43;;;;;;;14.96;nan;100263.03;4976483;28;20265;-86
2023/07/03 04:46:40;;;;;;;12.10;1.13;;;;;;;14.94;nan;100279.91;4968989;28;20192;-86
2023/07/03 04:49:06;;;;;;;6.83;2.27;;;;;;;14.94;nan;100276.34;4975738;28;20213;-86
2023/07/03 04:51:32;;;;;;;5.13;2.10;;;;;;;14.94;nan;100279.09;4975828;28;20217;-85
2023/07/03 04:53:58;;;;;;;3.77;2.33;;;;;;;14.89;nan;100283.66;4975970;28;20229;-88
2023/07/03 04:56:25;;;;;;;14.40;2.67;;;;;;;15.05;nan;100302.25;4976035;28;20190;-86
2023/07/03 04:58:51;;;;;;;6.13;2.60;;;;;;;15.05;nan;100283.78;4976139;28;20671;-87
2023/07/03 05:01:16;;;;;;;2.20;1.77;;;;;;;15.03;nan;100279.75;4975699;28;20182;-86
2023/07/03 05:03:41;;;;;;;6.03;2.70;;;;;;;14.93;nan;100280.25;4975805;28;20197;-86
2023/07/03 05:06:07;;;;;;;0.87;0.70;;;;;;;14.83;nan;100271.28;4974743;28;20186;-86
2023/07/03 05:08:33;;;;;;;4.77;1.80;;;;;;;14.81;nan;100273.59;4971355;28;20222;-87
2023/07/03 05:11:01;;;;;;;0.83;0.83;;;;;;;14.88;nan;100265.56;4971723;28;20233;-86
2023/07/03 05:13:27;;;;;;;2.20;1.33;;;;;;;14.88;nan;100267.50;4976157;28;20197;-86
2023/07/03 05:15:53;;;;;;;6.20;1.70;;;;;;;14.96;nan;100258.34;4975014;28;20210;-85
2023/07/03 05:18:19;;;;;;;0.57;0.57;;;;;;;14.94;nan;100259.84;4976385;28;20270;-86
2023/07/03 05:20:45;;;;;;;4.20;2.00;;;;;;;15.03;nan;100272.31;4971617;28;20681;-87
2023/07/03 05:23:13;;;;;;;1.80;1.47;;;;;;;15.11;nan;100276.09;4973326;28;20190;-86
2023/07/03 05:25:39;;;;;;;1.97;1.60;;;;;;;15.05;nan;100272.78;4975527;28;20213;-86
2023/07/03 05:28:04;;;;;;;8.77;2.37;;;;;;;15.15;nan;100286.06;4975628;28;20286;-84
2023/07/03 05:30:29;;;;;;;9.27;1.50;;;;;;;15.10;nan;100275.28;4976176;28;20184;-88
2023/07/03 05:32:54;;;;;;;5.10;2.57;;;;;;;15.05;nan;100266.47;4975859;28;20209;-86
2023/07/03 05:35:20;;;;;;;5.87;2.43;;;;;;;15.04;nan;100229.88;4975541;28;20202;-86
2023/07/03 05:37:45;;;;;;;2.27;1.67;;;;;;;15.05;nan;100200.44;4975588;28;20182;-87
2023/07/03 05:40:14;;;;;;;2.50;0.93;;;;;;;15.06;nan;100204.78;4975244;28;20228;-85
2023/07/03 05:42:40;;;;;;;12.90;2.83;;;;;;;15.02;nan;100195.59;4975314;28;20182;-87
2023/07/03 05:45:06;;;;;;;10.80;3.60;;;;;;;15.04;nan;100204.31;4973838;28;20668;-86
2023/07/03 05:47:32;;;;;;;0.87;0.73;;;;;;;15.03;nan;100197.22;4989684;28;20196;-87
2023/07/03 05:49:57;;;;;;;5.60;2.53;;;;;;;15.11;nan;100188.03;4974917;28;20656;-86
2023/07/03 05:52:25;;;;;;;9.43;3.47;;;;;;;15.02;nan;100174.41;4974825;28;20186;-88
2023/07/03 05:54:51;;;;;;;4.23;1.57;;;;;;;15.06;nan;100193.78;4970526;28;20414;-87
2023/07/03 05:57:16;;;;;;;12.37;2.20;;;;;;;15.15;nan;100192.47;4971847;28;20192;-86
2023/07/03 05:59:41;;;;;;;0.37;0.33;;;;;;;15.13;nan;100208.53;4974475;28;20290;-87
2023/07/03 06:02:10;;;;;;;3.73;2.17;;;;;;;15.22;nan;100215.88;4973561;28;20189;-88
2023/07/03 06:04:36;;;;;;;10.63;1.17;;;;;;;15.28;nan;100209.78;4974848;28;20205;-86
2023/07/03 06:07:02;;;;;;;10.40;1.13;;;;;;;15.39;nan;100215.59;4974912;28;20227;-86
2023/07/03 06:09:28;;;;;;;35.30;3.23;;;;;;;15.43;nan;100217.28;4973300;28;20213;-87
2023/07/03 06:11:55;;;;;;;7.07;2.27;;;;;;;15.44;nan;100205.13;4974415;28;20682;-87
2023/07/03 06:14:20;;;;;;;3.07;2.17;;;;;;;15.54;nan;100203.84;4974426;28;20577;-88
2023/07/03 06:16:48;;;;;;;6.83;3.13;;;;;;;15.52;nan;100192.38;4974601;28;20190;-86
2023/07/03 06:19:19;;;;;;;7.73;1.93;;;;;;;15.65;nan;100179.38;4971296;28;20497;-87
2023/07/03 06:21:45;;;;;;;7.03;2.37;;;;;;;15.62;nan;100182.81;4974558;28;20216;-87
2023/07/03 06:24:12;;;;;;;10.70;2.43;;;;;;;15.66;nan;100192.81;4974275;28;20245;-87
2023/07/03 06:26:39;;;;;;;5.10;2.77;;;;;;;15.76;nan;100206.03;4972980;28;20185;-87
2023/07/03 06:29:05;;;;;;;11.47;3.00;;;;;;;15.77;nan;100187.59;4974063;28;20296;-87
2023/07/03 06:31:31;;;;;;;4.27;1.97;;;;;;;15.84;nan;100207.06;4973823;28;20190;-87
2023/07/03 06:33:56;;;;;;;12.77;1.90;;;;;;;15.95;nan;100204.59;4974077;28;20216;-87
2023/07/03 06:36:22;;;;;;;3.57;2.57;;;;;;;15.99;nan;100206.28;4973864;28;20178;-87
2023/07/03 06:38:52;;;;;;;2.10;0.63;;;;;;;16.06;nan;100222.22;4974142;28;20253;-87
2023/07/03 06:41:18;;;;;;;3.67;2.07;;;;;;;16.05;nan;100218.63;4971953;28;20213;-87
2023/07/03 06:43:44;;;;;;;15.27;3.63;;;;;;;16.13;nan;100227.09;4972639;28;20217;-87
2023/07/03 06:46:10;;;;;;;8.73;1.90;;;;;;;16.17;nan;100236.25;4972922;28;20240;-87
2023/07/03 06:48:37;;;;;;;1.73;1.53;;;;;;;16.41;nan;100246.34;4973903;28;20216;-88
2023/07/03 06:51:04;;;;;;;5.43;1.40;;;;;;;16.42;nan;100237.69;4973971;28;20185;-88
2023/07/03 06:53:29;;;;;;;2.97;1.23;;;;;;;16.51;nan;100248.56;4973741;28;20244;-88
2023/07/03 06:55:59;;;;;;;3.20;1.70;;;;;;;16.55;nan;100250.25;4972075;28;20186;-88
2023/07/03 06:58:26;;;;;;;4.03;1.53;;;;;;;16.55;nan;100247.50;4972483;28;20232;-88
2023/07/03 07:00:51;;;;;;;5.60;1.93;;;;;;;16.56;nan;100240.81;4973346;28;20197;-88
2023/07/03 07:03:17;;;;;;;7.10;2.47;;;;;;;16.59;nan;100215.28;4970935;28;20578;-88
2023/07/03 07:05:42;;;;;;;4.83;1.87;;;;;;;16.66;nan;100226.50;4972287;28;20579;-87
2023/07/03 07:08:08;;;;;;;1.33;1.23;;;;;;;16.83;nan;100246.59;4973630;28;20206;-89
2023/07/03 07:10:38;;;;;;;2.97;2.47;;;;;;;16.86;nan;100234.84;4973486;28;20644;-88
2023/07/03 07:13:03;;;;;;;8.60;2.50;;;;;;;16.81;nan;100233.19;4967448;28;20186;-87
2023/07/03 07:15:28;;;;;;;13.10;2.23;;;;;;;16.91;nan;100237.31;4971080;28;20209;-89
2023/07/03 07:17:54;;;;;;;5.17;2.87;;;;;;;17.10;nan;100244.88;4973059;28;20186;-89
2023/07/03 07:20:19;;;;;;;6.73;2.47;;;;;;;17.18;nan;100252.13;4969675;28;20268;-89
2023/07/03 07:22:45;;;;;;;3.07;1.73;;;;;;;17.19;nan;100253.72;4965694;28;20170;-88
2023/07/03 07:25:10;;;;;;;1.80;1.43;;;;;;;17.14;nan;100229.97;4970491;28;20787;-88
2023/07/03 07:27:36;;;;;;;3.97;2.20;;;;;;;17.05;nan;100234.88;4970864;28;20281;-88
2023/07/03 07:30:01;;;;;;;7.33;2.07;;;;;;;16.88;nan;100224.25;4971227;28;20236;-87
2023/07/03 07:32:27;;;;;;;2.33;1.57;;;;;;;16.76;nan;100227.13;4969591;28;20261;-89
2023/07/03 07:34:52;;;;;;;4.10;1.83;;;;;;;16.69;nan;100226.97;4963865;28;20194;-88
2023/07/03 07:37:17;;;;;;;3.63;2.13;;;;;;;16.50;nan;100227.66;4969766;28;20550;-87
2023/07/03 07:39:43;;;;;;;4.03;1.37;;;;;;;16.36;nan;100219.84;4968182;28;20625;-88
2023/07/03 07:42:08;;;;;;;6.13;2.27;;;;;;;16.45;nan;100241.69;4969052;28;20232;-88
2023/07/03 07:44:33;;;;;;;1.53;1.20;;;;;;;16.53;nan;100236.00;4966471;28;20197;-87
2023/07/03 07:46:59;;;;;;;3.90;1.60;;;;;;;16.60;nan;100233.41;4968694;28;20177;-88
2023/07/03 07:49:24;;;;;;;2.40;1.23;;;;;;;16.97;nan;100257.19;4964736;28;20236;-89
2023/07/03 07:51:50;;;;;;;10.77;2.80;;;;;;;17.20;nan;100263.63;4972229;28;20205;-88
2023/07/03 07:54:15;;;;;;;11.50;2.13;;;;;;;17.55;nan;100266.38;4964093;28;20230;-87
2023/07/03 07:56:40;;;;;;;13.70;3.47;;;;;;;17.80;nan;100278.78;4971730;28;20197;-88
2023/07/03 07:59:06;;;;;;;9.47;2.30;;;;;;;17.68;nan;100262.34;4980711;28;20179;-89
2023/07/03 08:01:31;;;;;;;2.00;1.33;;;;;;;17.72;nan;100256.88;4971746;28;20268;-88
2023/07/03 08:03:57;;;;;;;13.20;3.97;;;;;;;17.69;nan;100243.78;4979052;28;20201;-89
2023/07/03 08:06:22;;;;;;;5.67;2.27;;;;;;;17.70;nan;100248.94;4971560;28;20715;-89
2023/07/03 08:08:49;;;;;;;2.97;1.97;;;;;;;17.43;nan;100227.84;4973627;28;20212;-89
2023/07/03 08:11:15;;;;;;;8.00;4.07;;;;;;;17.36;nan;100235.94;4975183;28;20228;-86
2023/07/03 08:13:41;;;;;;;4.23;1.67;;;;;;;17.23;nan;100241.63;4973253;28;20206;-87
2023/07/03 08:16:08;;;;;;;3.33;1.77;;;;;;;17.10;nan;100237.38;4975376;28;20209;-88
2023/07/03 08:18:33;;;;;;;3.00;2.17;;;;;;;16.97;nan;100229.59;4974977;28;20177;-88
2023/07/03 08:20:58;;;;;;;7.87;1.90;;;;;;;16.84;nan;100228.91;4972975;28;20265;-88
2023/07/03 08:23:24;;;;;;;6.93;2.20;;;;;;;16.78;nan;100241.34;4966481;28;20229;-89
2023/07/03 08:25:53;;;;;;;5.87;2.20;;;;;;;16.78;nan;100258.72;4973061;28;20222;-88
2023/07/03 08:28:19;;;;;;;10.80;2.27;;;;;;;16.70;nan;100355.47;4974612;28;20206;-89
2023/07/03 08:30:45;;;;;;;1.53;1.20;;;;;;;16.64;nan;100319.84;4973651;28;20344;-89
2023/07/03 08:33:12;;;;;;;15.77;3.67;;;;;;;16.31;nan;100298.06;4969027;28;20179;-89
2023/07/03 08:35:37;;;;;;;7.10;3.17;;;;;;;16.06;nan;100283.66;4969477;28;20201;-88
2023/07/03 08:38:02;;;;;;;4.20;2.80;;;;;;;15.73;nan;100274.81;4975149;28;20174;-87
2023/07/03 08:40:28;;;;;;;1.13;1.03;;;;;;;15.58;nan;100272.78;4974732;28;20268;-87
2023/07/03 08:42:55;;;;;;;6.10;1.63;;;;;;;15.61;nan;100338.19;4974895;28;20182;-89
2023/07/03 08:45:26;;;;;;;4.87;3.47;;;;;;;15.63;nan;100300.13;4973060;28;20207;-88
2023/07/03 08:47:53;;;;;;;1.73;1.63;;;;;;;15.81;nan;100284.91;4974577;28;20206;-88
2023/07/03 08:50:22;;;;;;;10.93;3.13;;;;;;;15.97;nan;100293.22;4974313;28;20666;-88
2023/07/03 08:52:55;;;;;;;9.10;3.57;;;;;;;16.12;nan;100270.41;4966354;28;20210;-89
2023/07/03 08:55:27;;;;;;;5.47;1.57;;;;;;;16.25;nan;100274.69;4973939;28;20285;-88
2023/07/03 08:57:52;;;;;;;7.07;2.93;;;;;;;16.44;nan;100276.75;4977167;28;20185;-89
2023/07/03 09:00:20;;;;;;;9.80;2.60;;;;;;;16.66;nan;100284.41;4993832;28;20186;-88
2023/07/03 09:02:48;;;;;;;5.20;2.13;;;;;;;16.80;nan;100285.97;4996358;28;20189;-87
2023/07/03 09:05:25;;;;;;;3.40;2.37;;;;;;;16.99;nan;100274.97;4997257;28;20253;-88
2023/07/03 09:07:55;;;;;;;3.80;1.83;;;;;;;17.24;nan;100284.66;4995239;28;20185;-87
2023/07/03 09:10:27;;;;;;;6.70;3.27;;;;;;;17.42;nan;100282.28;4999192;28;20242;-87
2023/07/03 09:13:11;;;;;;;4.83;2.17;;;;;;;17.58;nan;100278.66;4996808;28;20246;-88
2023/07/03 09:16:01;;;;;;;9.73;3.60;;;;;;;17.92;nan;100296.34;4992635;28;20200;-87
2023/07/03 09:18:30;;;;;;;3.87;2.40;;;;;;;17.89;nan;100277.72;4995826;28;20253;-86
2023/07/03 09:20:57;;;;;;;8.87;2.33;;;;;;;17.92;nan;100277.78;4996832;28;20637;-87
2023/07/03 09:23:28;;;;;;;2.80;1.83;;;;;;;18.04;nan;100296.19;4994584;28;20237;-88
2023/07/03 09:26:23;;;;;;;2.93;2.73;;;;;;;18.25;nan;100306.88;4981002;28;20368;-88
2023/07/03 09:28:49;;;;;;;2.47;1.87;;;;;;;18.31;nan;100306.22;4970050;28;20293;-88
2023/07/03 09:31:15;;;;;;;5.53;2.07;;;;;;;18.38;nan;100309.13;4976034;28;20233;-87
2023/07/03 09:33:41;;;;;;;15.93;2.77;;;;;;;18.50;nan;100290.72;4971369;28;20182;-88
2023/07/03 09:36:40;;;;;;;7.80;3.03;;;;;;;18.66;nan;100285.88;4973062;28;20553;-87
2023/07/03 09:39:18;;;;;;;6.97;3.17;;;;;;;18.54;nan;100275.00;4974268;28;20204;-87
2023/07/03 09:41:43;;;;;;;1.30;1.23;;;;;;;18.72;nan;100278.88;4975322;28;20232;-89
2023/07/03 09:44:14;;;;;;;1.80;1.53;;;;;;;18.79;nan;100281.75;4975287;28;20235;-88
2023/07/03 09:46:40;;;;;;;5.23;2.30;;;;;;;18.87;nan;100285.47;4976600;28;20186;-88
2023/07/03 09:49:14;;;;;;;5.57;1.60;;;;;;;18.88;nan;100267.69;4977227;28;20217;-88
2023/07/03 09:51:39;;;;;;;8.03;2.37;;;;;;;19.25;nan;100292.78;4975532;28;20204;-88
2023/07/03 09:54:16;;;;;;;3.50;1.30;;;;;;;19.50;nan;100293.09;4970708;28;20680;-89
2023/07/03 09:56:41;;;;;;;4.53;1.23;;;;;;;19.52;nan;100291.56;4973907;28;20186;-88
2023/07/03 09:59:06;;;;;;;1.67;1.30;;;;;;;19.01;nan;100247.72;4974998;28;20184;-88
2023/07/03 10:01:36;;;;;;;2.00;1.87;;;;;;;18.86;nan;100256.19;4970842;28;20194;-87
2023/07/03 10:04:10;;;;;;;10.90;2.43;;;;;;;18.68;nan;100255.91;4971461;28;20201;-88
2023/07/03 10:06:37;;;;;;;16.37;2.70;;;;;;;18.29;nan;100246.91;4975202;28;20228;-88
2023/07/03 10:09:17;;;;;;;8.93;2.63;;;;;;;17.76;nan;100396.72;4973634;28;20204;-88
2023/07/03 10:12:02;;;;;;;20.80;3.17;;;;;;;17.63;nan;100317.84;4974644;28;20638;-88
2023/07/03 10:14:43;;;;;;;1.57;1.33;;;;;;;17.40;nan;100286.56;4974865;28;20354;-88
2023/07/03 10:17:12;;;;;;;2.10;2.00;;;;;;;17.26;nan;100273.25;4974580;28;20185;-89
2023/07/03 10:19:42;;;;;;;3.70;1.33;;;;;;;17.21;nan;100279.84;4974272;28;20170;-88
2023/07/03 10:22:09;;;;;;;15.40;3.30;;;;;;;17.11;nan;100287.88;4974805;28;20177;-88
2023/07/03 10:24:35;;;;;;;1.13;1.03;;;;;;;17.13;nan;100286.34;4989118;23;20241;-87
2023/07/03 10:27:02;;;;;;;5.10;3.00;;;;;;;17.08;nan;100283.09;4956102;28;20189;-86
2023/07/03 10:29:37;;;;;;;4.93;1.07;;;;;;;17.01;nan;100277.38;4954724;29;20288;-87
2023/07/03 10:32:23;;;;;;;7.60;2.10;;;;;;;17.00;nan;100290.38;4955964;28;20174;-89
2023/07/03 10:34:53;;;;;;;6.33;2.27;;;;;;;16.94;nan;100278.03;4949699;28;20735;-87
2023/07/03 10:37:20;;;;;;;5.50;2.37;;;;;;;16.94;nan;100289.06;4956131;28;20675;-87
2023/07/03 10:39:53;;;;;;;5.30;1.80;;;;;;;17.22;nan;100317.34;4951534;29;20190;-86
2023/07/03 10:42:27;;;;;;;3.63;2.20;;;;;;;17.41;nan;100313.00;4954569;29;20191;-86
2023/07/03 10:44:59;;;;;;;7.60;2.20;;;;;;;17.84;nan;100340.44;4954283;29;20202;-86
2023/07/03 10:47:30;;;;;;;7.47;2.50;;;;;;;17.99;nan;100338.78;4954099;28;20198;-87
2023/07/03 10:49:57;;;;;;;8.50;2.43;;;;;;;17.96;nan;100319.34;4954559;28;20214;-87
2023/07/03 10:52:40;;;;;;;2.80;1.57;;;;;;;17.87;nan;100304.94;4953846;29;20183;-87
2023/07/03 10:55:21;;;;;;;8.77;3.00;;;;;;;17.68;nan;100297.44;4954654;29;20206;-89
2023/07/03 10:58:11;;;;;;;1.73;1.50;;;;;;;17.63;nan;100312.31;4952110;29;20282;-87
2023/07/03 11:00:44;;;;;;;2.17;1.97;;;;;;;17.82;nan;100315.13;4949621;29;20189;-86
2023/07/03 11:03:37;;;;;;;4.03;2.23;;;;;;;18.27;nan;100344.06;4957953;28;20194;-87
2023/07/03 11:06:05;;;;;;;4.53;2.77;;;;;;;18.39;nan;100330.09;4929902;29;20724;-87
2023/07/03 11:08:39;;;;;;;24.93;3.57;;;;;;;18.43;nan;100319.88;4947702;29;20246;-87
2023/07/03 11:11:28;;;;;;;4.07;1.67;;;;;;;18.85;nan;100338.44;4954674;29;20208;-87
2023/07/03 11:14:04;;;;;;;0.70;0.50;;;;;;;19.12;nan;100339.28;4956369;28;20545;-86
2023/07/03 11:16:43;;;;;;;4.97;2.43;;;;;;;19.10;nan;100329.75;4947166;29;20197;-87
2023/07/03 11:19:25;;;;;;;1.40;1.30;;;;;;;19.17;nan;100319.56;4954643;29;20273;-86
2023/07/03 11:22:14;;;;;;;1.33;1.23;;;;;;;19.26;nan;100320.09;4953149;29;20194;-88
2023/07/03 11:24:57;;;;;;;2.60;1.40;;;;;;;19.24;nan;100313.31;4961902;28;20565;-86
2023/07/03 11:27:46;;;;;;;7.43;2.23;;;;;;;19.39;nan;100292.97;4954124;29;20221;-87
2023/07/03 11:30:12;;;;;;;4.50;2.23;;;;;;;19.23;nan;100311.72;4955388;28;20187;-87
2023/07/03 11:32:37;;;;;;;5.17;2.90;;;;;;;19.01;nan;100292.00;4956675;28;20189;-87
2023/07/03 11:35:04;;;;;;;7.20;2.47;;;;;;;18.52;nan;100269.03;4954659;29;20221;-87
2023/07/03 11:37:34;;;;;;;3.50;2.20;;;;;;;18.43;nan;100264.53;4950169;29;20222;-87
2023/07/03 11:40:35;;;;;;;3.07;2.37;;;;;;;18.38;nan;100275.13;4956842;28;20186;-87
2023/07/03 11:43:15;;;;;;;3.40;1.77;;;;;;;18.40;nan;100283.84;4957167;28;20664;-86
2023/07/03 11:45:49;;;;;;;1.67;1.33;;;;;;;18.44;nan;100273.63;4957910;28;20252;-86
2023/07/03 11:48:49;;;;;;;12.50;2.20;;;;;;;18.60;nan;100292.88;4956729;28;20201;-87
2023/07/03 11:51:28;;;;;;;6.70;1.63;;;;;;;18.83;nan;100304.78;4934837;29;20195;-89
2023/07/03 11:53:56;;;;;;;0.20;0.20;;;;;;;19.08;nan;100301.59;4962574;28;20428;-86
2023/07/03 11:56:30;;;;;;;4.37;2.27;;;;;;;18.78;nan;100284.91;4961433;28;20198;-86
2023/07/03 11:59:24;;;;;;;8.13;2.03;;;;;;;18.78;nan;100285.69;4954731;29;20182;-87
2023/07/03 12:01:52;;;;;;;1.10;0.70;;;;;;;18.70;nan;100273.72;4948803;29;20199;-86
2023/07/03 12:04:44;;;;;;;5.17;1.97;;;;;;;18.59;nan;100272.72;4969544;28;20209;-86
2023/07/03 12:07:30;;;;;;;1.77;1.67;;;;;;;18.42;nan;100260.19;4952020;28;20768;-87
2023/07/03 12:10:18;;;;;;;1.20;1.10;;;;;;;18.36;nan;100397.19;4953949;29;20229;-86
2023/07/03 12:12:49;;;;;;;0.43;0.40;;;;;;;18.32;nan;100323.59;4954218;28;20637;-87
2023/07/03 12:15:15;;;;;;;10.87;2.63;;;;;;;18.27;nan;100310.88;4962002;28;20210;-87
2023/07/03 12:17:41;;;;;;;2.87;1.70;;;;;;;18.32;nan;100299.50;4953205;28;20185;-87
2023/07/03 12:20:13;;;;;;;4.00;2.30;;;;;;;18.41;nan;100307.56;4951844;29;20190;-87